sensor_id;sensor_type;location;lat;lon;timestamp;temperature;humidity
22442;DHT22;11388;54.456;9.752;2023-08-06T05:31:07;18.10;99.90
22442;DHT22;11388;54.456;9.752;2023-08-06T05:33:33;18.20;99.90
22442;DHT22;11388;54.456;9.752;2023-08-06T05:35:59;18.20;99.90
22442;DHT22;11388;54.456;9.752;2023-08-06T05:38:25;18.20;99.90
22442;DHT22;11388;54.456;9.752;2023-08-06T05:40:53;18.20;99.90
22442;DHT22;11388;54.456;9.752;2023-08-06T05:43:22;18.20;99.90
22442;DHT22;11388;54.456;9.752;2023-08-06T05:45:51;18.20;99.90
22442;DHT22;11388;54.456;9.752;2023-08-06T05:48:25;18.20;99.90
22442;DHT22;11388;54.456;9.752;2023-08-06T05:50:54;18.20;99.90
22442;DHT22;11388;54.456;9.752;2023-08-06T05:53:31;18.30;99.90
22442;DHT22;11388;54.456;9.752;2023-08-06T05:55:57;18.30;99.90
22442;DHT22;11388;54.456;9.752;2023-08-06T05:58:26;18.30;99.90
22442;DHT22;11388;54.456;9.752;2023-08-06T06:00:58;18.30;99.90
22442;DHT22;11388;54.456;9.752;2023-08-06T06:03:27;18.40;99.90
22442;DHT22;11388;54.456;9.752;2023-08-06T06:06:00;18.50;99.90
22442;DHT22;11388;54.456;9.752;2023-08-06T06:08:31;18.50;99.90
22442;DHT22;11388;54.456;9.752;2023-08-06T06:11:00;18.50;99.90
22442;DHT22;11388;54.456;9.752;2023-08-06T06:13:29;18.50;99.90
22442;DHT22;11388;54.456;9.752;2023-08-06T06:16:04;18.60;99.90
22442;DHT22;11388;54.456;9.752;2023-08-06T06:18:33;18.60;99.90
22442;DHT22;11388;54.456;9.752;2023-08-06T06:20:59;18.60;99.90
22442;DHT22;11388;54.456;9.752;2023-08-06T06:23:27;18.60;99.90
22442;DHT22;11388;54.456;9.752;2023-08-06T06:25:55;18.60;99.90
22442;DHT22;11388;54.456;9.752;2023-08-06T06:28:24;18.60;99.90
22442;DHT22;11388;54.456;9.752;2023-08-06T06:30:52;18.60;99.90
22442;DHT22;11388;54.456;9.752;2023-08-06T06:33:23;18.60;99.90
22442;DHT22;11388;54.456;9.752;2023-08-06T06:35:51;18.60;99.90
22442;DHT22;11388;54.456;9.752;2023-08-06T06:38:22;18.60;99.90
22442;DHT22;11388;54.456;9.752;2023-08-06T06:41:00;18.60;99.90
22442;DHT22;11388;54.456;9.752;2023-08-06T06:43:28;18.70;99.90
22442;DHT22;11388;54.456;9.752;2023-08-06T06:45:58;18.70;99.90
22442;DHT22;11388;54.456;9.752;2023-08-06T06:48:32;18.70;99.90
22442;DHT22;11388;54.456;9.752;2023-08-06T06:50:58;18.80;99.90
22442;DHT22;11388;54.456;9.752;2023-08-06T06:53:28;18.80;99.90
22442;DHT22;11388;54.456;9.752;2023-08-06T06:55:55;18.90;99.90
22442;DHT22;11388;54.456;9.752;2023-08-06T06:58:21;19.00;99.90
22442;DHT22;11388;54.456;9.752;2023-08-06T07:00:55;19.00;99.90
22442;DHT22;11388;54.456;9.752;2023-08-06T07:03:24;19.00;99.90
22442;DHT22;11388;54.456;9.752;2023-08-06T07:05:50;19.10;99.90
22442;DHT22;11388;54.456;9.752;2023-08-06T07:08:21;19.00;99.90
22442;DHT22;11388;54.456;9.752;2023-08-06T07:10:47;19.10;99.90
22442;DHT22;11388;54.456;9.752;2023-08-06T07:13:13;19.20;99.90
22442;DHT22;11388;54.456;9.752;2023-08-06T07:15:39;19.20;99.90
22442;DHT22;11388;54.456;9.752;2023-08-06T07:18:07;19.20;99.90
22442;DHT22;11388;54.456;9.752;2023-08-06T07:20:35;19.20;99.90
22442;DHT22;11388;54.456;9.752;2023-08-06T07:23:01;19.20;99.90
22442;DHT22;11388;54.456;9.752;2023-08-06T07:25:30;19.20;99.90
22442;DHT22;11388;54.456;9.752;2023-08-06T07:27:58;19.20;99.90
22442;DHT22;11388;54.456;9.752;2023-08-06T07:30:27;19.30;99.90
22442;DHT22;11388;54.456;9.752;2023-08-06T07:32:53;19.20;99.90
22442;DHT22;11388;54.456;9.752;2023-08-06T07:35:19;19.20;99.90
22442;DHT22;11388;54.456;9.752;2023-08-06T07:37:45;19.10;99.90
22442;DHT22;11388;54.456;9.752;2023-08-06T07:40:13;19.00;99.90
22442;DHT22;11388;54.456;9.752;2023-08-06T07:42:40;19.10;99.90
22442;DHT22;11388;54.456;9.752;2023-08-06T07:45:07;19.10;99.90
22442;DHT22;11388;54.456;9.752;2023-08-06T07:47:33;19.00;99.90
22442;DHT22;11388;54.456;9.752;2023-08-06T07:50:02;19.10;99.90
22442;DHT22;11388;54.456;9.752;2023-08-06T07:52:27;19.00;99.90
22442;DHT22;11388;54.456;9.752;2023-08-06T07:54:56;19.10;99.90
22442;DHT22;11388;54.456;9.752;2023-08-06T07:57:22;19.00;99.90
22442;DHT22;11388;54.456;9.752;2023-08-06T07:59:51;19.10;99.90
22442;DHT22;11388;54.456;9.752;2023-08-06T08:02:21;19.00;99.90
22442;DHT22;11388;54.456;9.752;2023-08-06T08:04:46;19.00;99.90
22442;DHT22;11388;54.456;9.752;2023-08-06T08:07:15;18.90;99.90
22442;DHT22;11388;54.456;9.752;2023-08-06T08:09:44;18.90;99.90
22442;DHT22;11388;54.456;9.752;2023-08-06T08:12:10;18.90;99.90
22442;DHT22;11388;54.456;9.752;2023-08-06T08:14:38;18.90;99.90
22442;DHT22;11388;54.456;9.752;2023-08-06T08:17:04;18.90;99.90
22442;DHT22;11388;54.456;9.752;2023-08-06T08:19:33;18.90;99.90
22442;DHT22;11388;54.456;9.752;2023-08-06T08:21:59;18.90;99.90
22442;DHT22;11388;54.456;9.752;2023-08-06T08:24:25;19.00;99.90
22442;DHT22;11388;54.456;9.752;2023-08-06T08:26:52;19.00;99.90
22442;DHT22;11388;54.456;9.752;2023-08-06T08:29:20;19.10;99.90
22442;DHT22;11388;54.456;9.752;2023-08-06T08:31:47;19.10;99.90
22442;DHT22;11388;54.456;9.752;2023-08-06T08:34:15;19.20;99.90
22442;DHT22;11388;54.456;9.752;2023-08-06T08:36:41;19.30;99.90
22442;DHT22;11388;54.456;9.752;2023-08-06T08:39:10;19.40;99.90
22442;DHT22;11388;54.456;9.752;2023-08-06T08:41:37;19.50;99.90
22442;DHT22;11388;54.456;9.752;2023-08-06T08:44:05;19.60;99.90
22442;DHT22;11388;54.456;9.752;2023-08-06T08:46:33;19.80;99.90
22442;DHT22;11388;54.456;9.752;2023-08-06T08:49:02;19.90;99.90
22442;DHT22;11388;54.456;9.752;2023-08-06T08:51:31;20.00;99.90
22442;DHT22;11388;54.456;9.752;2023-08-06T08:54:03;20.10;99.90
22442;DHT22;11388;54.456;9.752;2023-08-06T08:56:29;20.00;99.90
22442;DHT22;11388;54.456;9.752;2023-08-06T08:58:56;20.00;99.90
22442;DHT22;11388;54.456;9.752;2023-08-06T09:01:22;20.00;99.90
22442;DHT22;11388;54.456;9.752;2023-08-06T09:04:08;20.00;99.90
22442;DHT22;11388;54.456;9.752;2023-08-06T09:06:37;20.00;99.90
22442;DHT22;11388;54.456;9.752;2023-08-06T09:11:31;20.00;99.90
22442;DHT22;11388;54.456;9.752;2023-08-06T09:14:08;20.00;99.90
22442;DHT22;11388;54.456;9.752;2023-08-06T09:16:37;20.00;99.90
22442;DHT22;11388;54.456;9.752;2023-08-06T09:19:08;20.10;99.90
22442;DHT22;11388;54.456;9.752;2023-08-06T09:21:37;20.10;99.90
22442;DHT22;11388;54.456;9.752;2023-08-06T09:24:08;20.20;99.90
22442;DHT22;11388;54.456;9.752;2023-08-06T09:26:37;20.20;99.90
22442;DHT22;11388;54.456;9.752;2023-08-06T09:29:05;20.30;99.90
22442;DHT22;11388;54.456;9.752;2023-08-06T09:31:44;20.40;99.90
22442;DHT22;11388;54.456;9.752;2023-08-06T09:34:15;20.30;99.90
22442;DHT22;11388;54.456;9.752;2023-08-06T09:36:42;20.40;99.90
22442;DHT22;11388;54.456;9.752;2023-08-06T09:39:15;20.40;99.90
22442;DHT22;11388;54.456;9.752;2023-08-06T09:41:42;20.40;99.90
22442;DHT22;11388;54.456;9.752;2023-08-06T09:44:20;20.30;99.90
22442;DHT22;11388;54.456;9.752;2023-08-06T09:46:56;20.40;99.90
22442;DHT22;11388;54.456;9.752;2023-08-06T09:49:26;20.40;99.90
22442;DHT22;11388;54.456;9.752;2023-08-06T09:51:53;20.40;99.90
22442;DHT22;11388;54.456;9.752;2023-08-06T09:54:22;20.40;99.90
22442;DHT22;11388;54.456;9.752;2023-08-06T09:56:49;20.50;99.90
22442;DHT22;11388;54.456;9.752;2023-08-06T09:59:15;20.60;99.90
22442;DHT22;11388;54.456;9.752;2023-08-06T10:01:41;20.70;99.90
22442;DHT22;11388;54.456;9.752;2023-08-06T10:04:09;20.70;99.90
22442;DHT22;11388;54.456;9.752;2023-08-06T10:06:41;20.80;99.90
22442;DHT22;11388;54.456;9.752;2023-08-06T10:09:07;20.80;99.90
22442;DHT22;11388;54.456;9.752;2023-08-06T10:11:40;21.00;99.90
22442;DHT22;11388;54.456;9.752;2023-08-06T10:14:30;21.10;99.90
22442;DHT22;11388;54.456;9.752;2023-08-06T10:17:07;21.20;99.90
22442;DHT22;11388;54.456;9.752;2023-08-06T10:19:42;21.30;99.90
22442;DHT22;11388;54.456;9.752;2023-08-06T10:22:16;21.50;99.90
22442;DHT22;11388;54.456;9.752;2023-08-06T10:25:02;21.60;99.90
22442;DHT22;11388;54.456;9.752;2023-08-06T10:32:52;21.60;99.90
22442;DHT22;11388;54.456;9.752;2023-08-06T10:37:58;21.80;99.90
22442;DHT22;11388;54.456;9.752;2023-08-06T10:40:25;21.70;99.90
22442;DHT22;11388;54.456;9.752;2023-08-06T10:42:59;21.60;99.90
22442;DHT22;11388;54.456;9.752;2023-08-06T10:45:28;21.60;99.90
22442;DHT22;11388;54.456;9.752;2023-08-06T10:47:59;21.80;99.90
22442;DHT22;11388;54.456;9.752;2023-08-06T10:50:25;21.80;99.90
22442;DHT22;11388;54.456;9.752;2023-08-06T10:52:51;21.90;99.90
22442;DHT22;11388;54.456;9.752;2023-08-06T10:55:28;21.90;99.90
22442;DHT22;11388;54.456;9.752;2023-08-06T10:57:56;22.00;99.90
22442;DHT22;11388;54.456;9.752;2023-08-06T11:00:23;22.00;99.90
22442;DHT22;11388;54.456;9.752;2023-08-06T11:02:52;22.00;99.90
22442;DHT22;11388;54.456;9.752;2023-08-06T11:05:22;22.10;99.90
22442;DHT22;11388;54.456;9.752;2023-08-06T11:07:50;22.20;99.90
22442;DHT22;11388;54.456;9.752;2023-08-06T11:10:20;22.20;99.90
22442;DHT22;11388;54.456;9.752;2023-08-06T11:12:48;22.30;99.90
22442;DHT22;11388;54.456;9.752;2023-08-06T11:15:14;22.30;99.90
22442;DHT22;11388;54.456;9.752;2023-08-06T11:17:42;22.30;99.90
22442;DHT22;11388;54.456;9.752;2023-08-06T11:20:09;22.40;99.90
22442;DHT22;11388;54.456;9.752;2023-08-06T11:22:38;22.40;99.90
22442;DHT22;11388;54.456;9.752;2023-08-06T11:25:10;22.50;99.90
22442;DHT22;11388;54.456;9.752;2023-08-06T11:27:42;22.60;99.90
22442;DHT22;11388;54.456;9.752;2023-08-06T11:30:10;22.70;99.90
22442;DHT22;11388;54.456;9.752;2023-08-06T11:32:45;22.70;99.90
22442;DHT22;11388;54.456;9.752;2023-08-06T11:35:15;22.60;99.90
22442;DHT22;11388;54.456;9.752;2023-08-06T11:37:48;22.70;99.90
22442;DHT22;11388;54.456;9.752;2023-08-06T11:40:17;22.70;99.90
22442;DHT22;11388;54.456;9.752;2023-08-06T11:42:43;22.80;99.90
22442;DHT22;11388;54.456;9.752;2023-08-06T11:45:11;22.90;99.90
22442;DHT22;11388;54.456;9.752;2023-08-06T11:47:50;23.00;99.90
22442;DHT22;11388;54.456;9.752;2023-08-06T11:50:26;23.10;99.90
22442;DHT22;11388;54.456;9.752;2023-08-06T11:53:00;23.20;99.90
22442;DHT22;11388;54.456;9.752;2023-08-06T11:55:28;23.00;99.90
22442;DHT22;11388;54.456;9.752;2023-08-06T11:58:03;23.00;99.90
22442;DHT22;11388;54.456;9.752;2023-08-06T12:00:34;22.90;99.90
22442;DHT22;11388;54.456;9.752;2023-08-06T12:03:04;22.90;99.90
22442;DHT22;11388;54.456;9.752;2023-08-06T12:05:31;23.00;99.90
22442;DHT22;11388;54.456;9.752;2023-08-06T12:08:04;23.00;99.90
22442;DHT22;11388;54.456;9.752;2023-08-06T12:10:32;23.00;99.90
22442;DHT22;11388;54.456;9.752;2023-08-06T12:13:00;23.00;99.90
22442;DHT22;11388;54.456;9.752;2023-08-06T12:15:29;22.90;99.90
22442;DHT22;11388;54.456;9.752;2023-08-06T12:17:58;22.90;99.90
22442;DHT22;11388;54.456;9.752;2023-08-06T12:20:24;22.70;99.90
22442;DHT22;11388;54.456;9.752;2023-08-06T12:23:01;22.70;99.90
22442;DHT22;11388;54.456;9.752;2023-08-06T12:25:27;22.60;99.90
22442;DHT22;11388;54.456;9.752;2023-08-06T12:27:56;22.60;99.90
22442;DHT22;11388;54.456;9.752;2023-08-06T12:30:28;22.60;99.90
22442;DHT22;11388;54.456;9.752;2023-08-06T12:32:54;22.60;99.90
22442;DHT22;11388;54.456;9.752;2023-08-06T12:35:20;22.70;99.90
22442;DHT22;11388;54.456;9.752;2023-08-06T12:37:46;22.60;99.90
22442;DHT22;11388;54.456;9.752;2023-08-06T12:40:15;22.80;99.90
22442;DHT22;11388;54.456;9.752;2023-08-06T12:42:41;22.90;99.90
22442;DHT22;11388;54.456;9.752;2023-08-06T12:45:07;23.00;99.90
22442;DHT22;11388;54.456;9.752;2023-08-06T12:47:33;23.00;99.90
22442;DHT22;11388;54.456;9.752;2023-08-06T12:50:05;23.00;99.90
22442;DHT22;11388;54.456;9.752;2023-08-06T12:52:31;23.00;99.90
22442;DHT22;11388;54.456;9.752;2023-08-06T12:55:00;23.00;99.90
22442;DHT22;11388;54.456;9.752;2023-08-06T12:57:26;23.00;99.90
22442;DHT22;11388;54.456;9.752;2023-08-06T12:59:57;23.10;99.90
22442;DHT22;11388;54.456;9.752;2023-08-06T13:02:23;23.20;99.90
22442;DHT22;11388;54.456;9.752;2023-08-06T13:04:49;23.30;99.90
22442;DHT22;11388;54.456;9.752;2023-08-06T13:07:15;23.20;99.90
22442;DHT22;11388;54.456;9.752;2023-08-06T13:09:44;23.10;99.90
22442;DHT22;11388;54.456;9.752;2023-08-06T13:12:10;23.10;99.90
22442;DHT22;11388;54.456;9.752;2023-08-06T13:14:35;23.10;99.90
22442;DHT22;11388;54.456;9.752;2023-08-06T13:17:04;22.90;99.90
22442;DHT22;11388;54.456;9.752;2023-08-06T13:19:48;22.70;99.90
22442;DHT22;11388;54.456;9.752;2023-08-06T13:22:19;22.60;99.90
22442;DHT22;11388;54.456;9.752;2023-08-06T13:24:45;22.60;99.90
22442;DHT22;11388;54.456;9.752;2023-08-06T13:27:13;22.40;99.90
22442;DHT22;11388;54.456;9.752;2023-08-06T13:29:39;22.20;99.90
22442;DHT22;11388;54.456;9.752;2023-08-06T13:32:08;22.20;99.90
22442;DHT22;11388;54.456;9.752;2023-08-06T13:34:34;22.20;99.90
22442;DHT22;11388;54.456;9.752;2023-08-06T13:37:03;22.20;99.90
22442;DHT22;11388;54.456;9.752;2023-08-06T13:39:33;22.30;99.90
22442;DHT22;11388;54.456;9.752;2023-08-06T13:41:59;22.40;99.90
22442;DHT22;11388;54.456;9.752;2023-08-06T13:44:28;22.50;99.90
22442;DHT22;11388;54.456;9.752;2023-08-06T13:47:01;22.50;99.90
22442;DHT22;11388;54.456;9.752;2023-08-06T13:49:32;22.40;99.90
22442;DHT22;11388;54.456;9.752;2023-08-06T13:51:58;22.50;99.90
22442;DHT22;11388;54.456;9.752;2023-08-06T13:54:24;22.60;99.90
22442;DHT22;11388;54.456;9.752;2023-08-06T13:56:52;22.60;99.90
22442;DHT22;11388;54.456;9.752;2023-08-06T13:59:23;22.70;99.90
22442;DHT22;11388;54.456;9.752;2023-08-06T14:01:50;22.70;99.90
